sensor_id;sensor_type;location;lat;lon;timestamp;P1;durP1;ratioP1;P2;durP2;ratioP2
8574;SDS011;4325;42.520;27.448;2024-03-23T00:51:25;14.97;;;8.93;;
8574;SDS011;4325;42.520;27.448;2024-03-23T00:53:53;18.03;;;10.10;;
8574;SDS011;4325;42.520;27.448;2024-03-23T00:56:19;29.07;;;13.50;;
8574;SDS011;4325;42.520;27.448;2024-03-23T00:58:46;30.83;;;16.17;;
8574;SDS011;4325;42.520;27.448;2024-03-23T01:01:12;35.77;;;17.83;;
8574;SDS011;4325;42.520;27.448;2024-03-23T01:03:39;43.30;;;21.10;;
8574;SDS011;4325;42.520;27.448;2024-03-23T01:06:05;38.37;;;17.80;;
8574;SDS011;4325;42.520;27.448;2024-03-23T01:08:33;35.83;;;16.50;;
8574;SDS011;4325;42.520;27.448;2024-03-23T01:10:59;34.87;;;16.83;;
8574;SDS011;4325;42.520;27.448;2024-03-23T01:13:27;42.90;;;19.53;;
8574;SDS011;4325;42.520;27.448;2024-03-23T01:15:54;37.87;;;17.87;;
8574;SDS011;4325;42.520;27.448;2024-03-23T01:18:22;29.97;;;15.80;;
8574;SDS011;4325;42.520;27.448;2024-03-23T01:20:49;23.83;;;13.90;;
8574;SDS011;4325;42.520;27.448;2024-03-23T01:23:16;18.40;;;10.63;;
8574;SDS011;4325;42.520;27.448;2024-03-23T01:25:43;20.80;;;10.40;;
8574;SDS011;4325;42.520;27.448;2024-03-23T01:28:18;17.03;;;10.20;;
8574;SDS011;4325;42.520;27.448;2024-03-23T01:30:44;17.60;;;9.73;;
8574;SDS011;4325;42.520;27.448;2024-03-23T01:33:11;18.33;;;9.43;;
8574;SDS011;4325;42.520;27.448;2024-03-23T01:38:22;14.73;;;8.07;;
8574;SDS011;4325;42.520;27.448;2024-03-23T01:40:50;14.77;;;8.63;;
8574;SDS011;4325;42.520;27.448;2024-03-23T01:43:23;14.80;;;8.63;;
8574;SDS011;4325;42.520;27.448;2024-03-23T01:45:49;13.63;;;8.27;;
8574;SDS011;4325;42.520;27.448;2024-03-23T01:48:18;15.27;;;8.17;;
8574;SDS011;4325;42.520;27.448;2024-03-23T01:50:45;16.40;;;9.00;;
8574;SDS011;4325;42.520;27.448;2024-03-23T01:53:13;15.87;;;9.47;;
8574;SDS011;4325;42.520;27.448;2024-03-23T01:55:42;15.27;;;8.53;;
8574;SDS011;4325;42.520;27.448;2024-03-23T01:58:11;15.63;;;9.93;;
8574;SDS011;4325;42.520;27.448;2024-03-23T02:00:37;16.97;;;9.17;;
8574;SDS011;4325;42.520;27.448;2024-03-23T02:05:48;15.53;;;8.50;;
8574;SDS011;4325;42.520;27.448;2024-03-23T02:08:16;15.03;;;8.37;;
8574;SDS011;4325;42.520;27.448;2024-03-23T02:10:43;16.63;;;8.03;;
8574;SDS011;4325;42.520;27.448;2024-03-23T02:13:11;14.30;;;8.33;;
8574;SDS011;4325;42.520;27.448;2024-03-23T02:15:39;12.77;;;7.73;;
8574;SDS011;4325;42.520;27.448;2024-03-23T02:18:07;24.07;;;11.83;;
8574;SDS011;4325;42.520;27.448;2024-03-23T02:20:33;31.43;;;13.70;;
8574;SDS011;4325;42.520;27.448;2024-03-23T02:23:01;19.23;;;9.77;;
8574;SDS011;4325;42.520;27.448;2024-03-23T02:25:27;15.37;;;9.00;;
8574;SDS011;4325;42.520;27.448;2024-03-23T02:27:54;24.93;;;13.23;;
8574;SDS011;4325;42.520;27.448;2024-03-23T02:30:20;33.17;;;14.40;;
8574;SDS011;4325;42.520;27.448;2024-03-23T02:32:47;28.90;;;13.67;;
8574;SDS011;4325;42.520;27.448;2024-03-23T02:35:13;36.70;;;15.27;;
8574;SDS011;4325;42.520;27.448;2024-03-23T02:37:40;41.33;;;17.10;;
8574;SDS011;4325;42.520;27.448;2024-03-23T02:40:08;52.77;;;18.90;;
8574;SDS011;4325;42.520;27.448;2024-03-23T02:42:35;44.87;;;20.83;;
8574;SDS011;4325;42.520;27.448;2024-03-23T02:45:02;45.80;;;19.27;;
8574;SDS011;4325;42.520;27.448;2024-03-23T02:47:30;45.27;;;18.73;;
8574;SDS011;4325;42.520;27.448;2024-03-23T02:49:56;52.57;;;22.10;;
8574;SDS011;4325;42.520;27.448;2024-03-23T02:52:23;41.10;;;18.67;;
8574;SDS011;4325;42.520;27.448;2024-03-23T02:54:49;40.40;;;20.03;;
8574;SDS011;4325;42.520;27.448;2024-03-23T02:57:17;31.97;;;14.27;;
8574;SDS011;4325;42.520;27.448;2024-03-23T02:59:43;16.33;;;8.27;;
8574;SDS011;4325;42.520;27.448;2024-03-23T03:02:11;19.53;;;10.63;;
8574;SDS011;4325;42.520;27.448;2024-03-23T03:04:38;39.50;;;18.67;;
8574;SDS011;4325;42.520;27.448;2024-03-23T03:07:05;42.90;;;18.40;;
8574;SDS011;4325;42.520;27.448;2024-03-23T03:09:31;40.77;;;18.30;;
8574;SDS011;4325;42.520;27.448;2024-03-23T03:12:00;26.57;;;11.40;;
8574;SDS011;4325;42.520;27.448;2024-03-23T03:14:28;30.53;;;14.17;;
8574;SDS011;4325;42.520;27.448;2024-03-23T03:16:55;29.13;;;15.80;;
8574;SDS011;4325;42.520;27.448;2024-03-23T03:19:21;36.20;;;17.30;;
8574;SDS011;4325;42.520;27.448;2024-03-23T03:21:48;36.57;;;16.77;;
8574;SDS011;4325;42.520;27.448;2024-03-23T03:24:14;29.77;;;14.57;;
8574;SDS011;4325;42.520;27.448;2024-03-23T03:26:42;31.30;;;14.07;;
8574;SDS011;4325;42.520;27.448;2024-03-23T03:29:08;29.17;;;13.83;;
8574;SDS011;4325;42.520;27.448;2024-03-23T03:31:37;23.20;;;11.20;;
8574;SDS011;4325;42.520;27.448;2024-03-23T03:34:03;16.27;;;8.03;;
8574;SDS011;4325;42.520;27.448;2024-03-23T03:36:30;15.73;;;8.47;;
8574;SDS011;4325;42.520;27.448;2024-03-23T03:38:56;16.17;;;8.60;;
8574;SDS011;4325;42.520;27.448;2024-03-23T03:41:23;13.40;;;7.33;;
8574;SDS011;4325;42.520;27.448;2024-03-23T03:43:49;12.00;;;7.13;;
8574;SDS011;4325;42.520;27.448;2024-03-23T03:46:16;10.80;;;6.33;;
8574;SDS011;4325;42.520;27.448;2024-03-23T03:48:43;11.60;;;6.57;;
8574;SDS011;4325;42.520;27.448;2024-03-23T03:51:13;15.67;;;7.60;;
8574;SDS011;4325;42.520;27.448;2024-03-23T03:53:38;13.90;;;6.80;;
8574;SDS011;4325;42.520;27.448;2024-03-23T03:56:06;10.13;;;6.63;;
8574;SDS011;4325;42.520;27.448;2024-03-23T03:58:32;11.40;;;6.63;;
8574;SDS011;4325;42.520;27.448;2024-03-23T04:00:59;12.60;;;6.37;;
8574;SDS011;4325;42.520;27.448;2024-03-23T04:03:25;17.63;;;8.63;;
8574;SDS011;4325;42.520;27.448;2024-03-23T04:05:53;21.07;;;8.80;;
8574;SDS011;4325;42.520;27.448;2024-03-23T04:08:20;21.93;;;10.37;;
8574;SDS011;4325;42.520;27.448;2024-03-23T04:10:47;24.00;;;12.20;;
8574;SDS011;4325;42.520;27.448;2024-03-23T04:13:13;26.30;;;12.37;;
8574;SDS011;4325;42.520;27.448;2024-03-23T04:15:41;31.80;;;14.63;;
8574;SDS011;4325;42.520;27.448;2024-03-23T04:18:07;40.40;;;17.17;;
8574;SDS011;4325;42.520;27.448;2024-03-23T04:20:34;31.90;;;15.07;;
8574;SDS011;4325;42.520;27.448;2024-03-23T04:23:02;34.17;;;15.60;;
8574;SDS011;4325;42.520;27.448;2024-03-23T04:25:29;41.13;;;19.23;;
8574;SDS011;4325;42.520;27.448;2024-03-23T04:27:56;46.77;;;18.53;;
8574;SDS011;4325;42.520;27.448;2024-03-23T04:30:23;43.97;;;19.40;;
8574;SDS011;4325;42.520;27.448;2024-03-23T04:32:53;41.20;;;17.47;;
8574;SDS011;4325;42.520;27.448;2024-03-23T04:35:20;38.80;;;16.47;;
8574;SDS011;4325;42.520;27.448;2024-03-23T04:37:47;29.03;;;13.53;;
8574;SDS011;4325;42.520;27.448;2024-03-23T04:40:15;17.83;;;9.70;;
8574;SDS011;4325;42.520;27.448;2024-03-23T04:42:43;26.97;;;10.63;;
8574;SDS011;4325;42.520;27.448;2024-03-23T04:45:10;22.27;;;10.93;;
8574;SDS011;4325;42.520;27.448;2024-03-23T04:47:36;21.27;;;11.53;;
8574;SDS011;4325;42.520;27.448;2024-03-23T04:50:04;28.63;;;13.10;;
8574;SDS011;4325;42.520;27.448;2024-03-23T04:52:30;37.73;;;16.20;;
8574;SDS011;4325;42.520;27.448;2024-03-23T04:54:57;37.30;;;16.07;;
8574;SDS011;4325;42.520;27.448;2024-03-23T04:57:26;40.07;;;18.63;;
8574;SDS011;4325;42.520;27.448;2024-03-23T04:59:52;25.17;;;12.87;;
8574;SDS011;4325;42.520;27.448;2024-03-23T05:02:19;24.63;;;12.23;;
8574;SDS011;4325;42.520;27.448;2024-03-23T05:04:46;22.60;;;11.57;;
8574;SDS011;4325;42.520;27.448;2024-03-23T05:07:12;20.80;;;11.67;;
8574;SDS011;4325;42.520;27.448;2024-03-23T05:09:39;22.30;;;11.70;;
8574;SDS011;4325;42.520;27.448;2024-03-23T05:12:05;26.33;;;12.53;;
8574;SDS011;4325;42.520;27.448;2024-03-23T05:14:34;25.63;;;12.77;;
8574;SDS011;4325;42.520;27.448;2024-03-23T05:17:00;23.73;;;11.73;;
8574;SDS011;4325;42.520;27.448;2024-03-23T05:19:28;28.47;;;12.63;;
8574;SDS011;4325;42.520;27.448;2024-03-23T05:21:54;24.07;;;11.70;;
8574;SDS011;4325;42.520;27.448;2024-03-23T05:24:21;24.93;;;12.00;;
8574;SDS011;4325;42.520;27.448;2024-03-23T05:26:47;25.97;;;11.63;;
8574;SDS011;4325;42.520;27.448;2024-03-23T05:29:14;31.23;;;15.67;;
8574;SDS011;4325;42.520;27.448;2024-03-23T05:31:43;27.33;;;12.63;;
8574;SDS011;4325;42.520;27.448;2024-03-23T05:34:10;31.13;;;14.63;;
8574;SDS011;4325;42.520;27.448;2024-03-23T05:36:36;22.63;;;11.60;;
8574;SDS011;4325;42.520;27.448;2024-03-23T05:39:03;21.20;;;11.80;;
8574;SDS011;4325;42.520;27.448;2024-03-23T05:41:29;17.40;;;9.87;;
8574;SDS011;4325;42.520;27.448;2024-03-23T05:43:56;12.90;;;6.77;;
8574;SDS011;4325;42.520;27.448;2024-03-23T05:46:22;11.47;;;6.50;;
8574;SDS011;4325;42.520;27.448;2024-03-23T05:48:51;8.73;;;5.73;;
8574;SDS011;4325;42.520;27.448;2024-03-23T05:51:17;10.60;;;6.60;;
8574;SDS011;4325;42.520;27.448;2024-03-23T05:53:44;11.97;;;7.30;;
8574;SDS011;4325;42.520;27.448;2024-03-23T05:56:10;11.10;;;6.67;;
8574;SDS011;4325;42.520;27.448;2024-03-23T05:58:37;10.53;;;5.87;;
8574;SDS011;4325;42.520;27.448;2024-03-23T06:01:03;10.07;;;6.20;;
8574;SDS011;4325;42.520;27.448;2024-03-23T06:03:30;13.10;;;7.47;;
8574;SDS011;4325;42.520;27.448;2024-03-23T06:05:58;13.73;;;8.67;;
8574;SDS011;4325;42.520;27.448;2024-03-23T06:08:25;14.13;;;9.60;;
8574;SDS011;4325;42.520;27.448;2024-03-23T06:10:51;11.20;;;7.37;;
8574;SDS011;4325;42.520;27.448;2024-03-23T06:13:18;12.37;;;7.67;;
8574;SDS011;4325;42.520;27.448;2024-03-23T06:15:44;19.57;;;11.07;;
8574;SDS011;4325;42.520;27.448;2024-03-23T06:18:11;18.47;;;11.03;;
8574;SDS011;4325;42.520;27.448;2024-03-23T06:20:38;27.73;;;15.17;;
8574;SDS011;4325;42.520;27.448;2024-03-23T06:23:06;28.60;;;17.57;;
8574;SDS011;4325;42.520;27.448;2024-03-23T06:25:32;29.40;;;16.37;;
8574;SDS011;4325;42.520;27.448;2024-03-23T06:27:59;24.20;;;13.23;;
8574;SDS011;4325;42.520;27.448;2024-03-23T06:30:26;19.63;;;12.13;;
8574;SDS011;4325;42.520;27.448;2024-03-23T06:32:54;22.30;;;12.30;;
8574;SDS011;4325;42.520;27.448;2024-03-23T06:35:21;27.43;;;14.57;;
8574;SDS011;4325;42.520;27.448;2024-03-23T06:37:47;20.27;;;12.53;;
8574;SDS011;4325;42.520;27.448;2024-03-23T06:40:16;22.33;;;13.27;;
8574;SDS011;4325;42.520;27.448;2024-03-23T06:42:42;25.87;;;16.23;;
8574;SDS011;4325;42.520;27.448;2024-03-23T06:45:09;21.83;;;12.47;;
8574;SDS011;4325;42.520;27.448;2024-03-23T06:47:35;25.37;;;14.77;;
8574;SDS011;4325;42.520;27.448;2024-03-23T06:50:02;29.70;;;13.07;;
8574;SDS011;4325;42.520;27.448;2024-03-23T06:52:29;21.40;;;13.07;;
8574;SDS011;4325;42.520;27.448;2024-03-23T06:54:57;19.93;;;11.70;;
8574;SDS011;4325;42.520;27.448;2024-03-23T06:57:24;22.33;;;13.10;;
8574;SDS011;4325;42.520;27.448;2024-03-23T06:59:51;15.97;;;10.57;;
8574;SDS011;4325;42.520;27.448;2024-03-23T07:02:17;11.90;;;8.33;;
8574;SDS011;4325;42.520;27.448;2024-03-23T07:04:45;17.30;;;10.40;;
8574;SDS011;4325;42.520;27.448;2024-03-23T07:07:10;13.17;;;8.63;;
8574;SDS011;4325;42.520;27.448;2024-03-23T07:09:38;14.53;;;10.20;;
8574;SDS011;4325;42.520;27.448;2024-03-23T07:12:04;16.43;;;9.67;;
8574;SDS011;4325;42.520;27.448;2024-03-23T07:14:33;15.10;;;10.57;;
8574;SDS011;4325;42.520;27.448;2024-03-23T07:16:59;16.70;;;8.97;;
8574;SDS011;4325;42.520;27.448;2024-03-23T07:19:26;14.07;;;9.17;;
8574;SDS011;4325;42.520;27.448;2024-03-23T07:21:52;19.77;;;9.87;;
8574;SDS011;4325;42.520;27.448;2024-03-23T07:24:19;15.03;;;9.63;;
8574;SDS011;4325;42.520;27.448;2024-03-23T07:26:45;12.87;;;8.43;;
8574;SDS011;4325;42.520;27.448;2024-03-23T07:29:13;18.97;;;9.60;;
8574;SDS011;4325;42.520;27.448;2024-03-23T07:31:40;12.83;;;9.23;;
8574;SDS011;4325;42.520;27.448;2024-03-23T07:34:07;17.87;;;10.37;;
8574;SDS011;4325;42.520;27.448;2024-03-23T07:36:33;13.87;;;8.53;;
8574;SDS011;4325;42.520;27.448;2024-03-23T07:39:00;11.77;;;7.47;;
8574;SDS011;4325;42.520;27.448;2024-03-23T07:41:26;8.00;;;7.07;;
8574;SDS011;4325;42.520;27.448;2024-03-23T07:43:53;8.23;;;6.93;;
8574;SDS011;4325;42.520;27.448;2024-03-23T07:46:20;8.83;;;7.33;;
8574;SDS011;4325;42.520;27.448;2024-03-23T07:48:49;10.47;;;7.43;;
8574;SDS011;4325;42.520;27.448;2024-03-23T07:51:16;11.87;;;6.73;;
8574;SDS011;4325;42.520;27.448;2024-03-23T07:53:44;9.30;;;7.43;;
8574;SDS011;4325;42.520;27.448;2024-03-23T07:56:11;10.00;;;8.30;;
8574;SDS011;4325;42.520;27.448;2024-03-23T07:58:40;9.50;;;8.47;;
8574;SDS011;4325;42.520;27.448;2024-03-23T08:01:07;8.60;;;6.87;;
8574;SDS011;4325;42.520;27.448;2024-03-23T08:03:35;6.87;;;6.17;;
8574;SDS011;4325;42.520;27.448;2024-03-23T08:06:10;6.97;;;5.67;;
8574;SDS011;4325;42.520;27.448;2024-03-23T08:08:39;5.97;;;5.13;;
8574;SDS011;4325;42.520;27.448;2024-03-23T08:11:05;10.57;;;5.20;;
8574;SDS011;4325;42.520;27.448;2024-03-23T08:13:33;7.77;;;5.47;;
8574;SDS011;4325;42.520;27.448;2024-03-23T08:16:00;5.43;;;4.93;;
8574;SDS011;4325;42.520;27.448;2024-03-23T08:18:28;6.73;;;4.83;;
8574;SDS011;4325;42.520;27.448;2024-03-23T08:20:57;5.90;;;4.97;;
8574;SDS011;4325;42.520;27.448;2024-03-23T08:23:26;5.13;;;4.53;;
8574;SDS011;4325;42.520;27.448;2024-03-23T08:25:57;5.13;;;4.60;;
8574;SDS011;4325;42.520;27.448;2024-03-23T08:28:24;5.83;;;5.07;;
8574;SDS011;4325;42.520;27.448;2024-03-23T08:30:50;5.07;;;4.57;;
8574;SDS011;4325;42.520;27.448;2024-03-23T08:33:17;5.40;;;4.87;;
8574;SDS011;4325;42.520;27.448;2024-03-23T08:35:49;8.43;;;5.77;;
8574;SDS011;4325;42.520;27.448;2024-03-23T08:38:19;6.50;;;5.50;;
8574;SDS011;4325;42.520;27.448;2024-03-23T08:40:47;5.43;;;4.93;;
8574;SDS011;4325;42.520;27.448;2024-03-23T08:43:14;6.13;;;5.23;;
8574;SDS011;4325;42.520;27.448;2024-03-23T08:45:40;5.30;;;4.80;;
8574;SDS011;4325;42.520;27.448;2024-03-23T08:48:07;10.07;;;4.50;;
8574;SDS011;4325;42.520;27.448;2024-03-23T08:50:34;6.53;;;4.90;;
8574;SDS011;4325;42.520;27.448;2024-03-23T08:53:01;5.00;;;4.50;;
8574;SDS011;4325;42.520;27.448;2024-03-23T08:55:28;8.80;;;5.00;;
8574;SDS011;4325;42.520;27.448;2024-03-23T08:57:56;5.40;;;4.50;;
8574;SDS011;4325;42.520;27.448;2024-03-23T09:00:22;10.27;;;5.30;;
8574;SDS011;4325;42.520;27.448;2024-03-23T09:02:49;5.30;;;4.80;;
8574;SDS011;4325;42.520;27.448;2024-03-23T09:05:15;5.07;;;4.57;;
8574;SDS011;4325;42.520;27.448;2024-03-23T09:07:42;5.77;;;4.50;;
8574;SDS011;4325;42.520;27.448;2024-03-23T09:10:08;7.27;;;5.87;;
8574;SDS011;4325;42.520;27.448;2024-03-23T09:12:35;5.03;;;4.17;;
8574;SDS011;4325;42.520;27.448;2024-03-23T09:15:03;4.60;;;4.20;;
8574;SDS011;4325;42.520;27.448;2024-03-23T09:17:30;5.03;;;4.53;;
8574;SDS011;4325;42.520;27.448;2024-03-23T09:19:56;6.17;;;4.07;;
8574;SDS011;4325;42.520;27.448;2024-03-23T09:22:23;4.10;;;3.70;;
8574;SDS011;4325;42.520;27.448;2024-03-23T09:24:49;3.83;;;3.53;;
8574;SDS011;4325;42.520;27.448;2024-03-23T09:27:16;5.27;;;4.03;;
8574;SDS011;4325;42.520;27.448;2024-03-23T09:29:42;4.80;;;4.30;;
8574;SDS011;4325;42.520;27.448;2024-03-23T09:32:11;5.17;;;4.20;;
8574;SDS011;4325;42.520;27.448;2024-03-23T09:34:37;4.20;;;3.80;;
8574;SDS011;4325;42.520;27.448;2024-03-23T09:37:04;4.33;;;3.93;;
8574;SDS011;4325;42.520;27.448;2024-03-23T09:39:30;3.93;;;3.63;;
8574;SDS011;4325;42.520;27.448;2024-03-23T09:41:58;3.87;;;3.50;;
8574;SDS011;4325;42.520;27.448;2024-03-23T09:44:24;5.23;;;3.80;;
8574;SDS011;4325;42.520;27.448;2024-03-23T09:46:54;4.10;;;3.70;;
8574;SDS011;4325;42.520;27.448;2024-03-23T09:49:22;3.67;;;3.37;;
8574;SDS011;4325;42.520;27.448;2024-03-23T09:51:50;4.17;;;3.77;;
8574;SDS011;4325;42.520;27.448;2024-03-23T09:54:16;6.00;;;3.57;;
8574;SDS011;4325;42.520;27.448;2024-03-23T09:56:43;3.87;;;3.50;;
8574;SDS011;4325;42.520;27.448;2024-03-23T09:59:09;4.57;;;3.20;;
8574;SDS011;4325;42.520;27.448;2024-03-23T10:01:36;5.33;;;2.80;;
8574;SDS011;4325;42.520;27.448;2024-03-23T10:04:02;3.40;;;3.10;;
8574;SDS011;4325;42.520;27.448;2024-03-23T10:06:32;3.90;;;3.50;;
8574;SDS011;4325;42.520;27.448;2024-03-23T10:08:59;3.87;;;3.33;;
8574;SDS011;4325;42.520;27.448;2024-03-23T10:11:26;5.90;;;3.47;;
8574;SDS011;4325;42.520;27.448;2024-03-23T10:13:54;3.83;;;3.27;;
8574;SDS011;4325;42.520;27.448;2024-03-23T10:16:22;4.93;;;3.23;;
8574;SDS011;4325;42.520;27.448;2024-03-23T10:18:49;4.00;;;3.40;;
8574;SDS011;4325;42.520;27.448;2024-03-23T10:21:16;3.33;;;3.03;;
8574;SDS011;4325;42.520;27.448;2024-03-23T10:23:44;3.73;;;2.93;;
8574;SDS011;4325;42.520;27.448;2024-03-23T10:26:15;4.27;;;3.30;;
8574;SDS011;4325;42.520;27.448;2024-03-23T10:28:52;4.47;;;3.20;;
8574;SDS011;4325;42.520;27.448;2024-03-23T10:31:26;2.70;;;2.50;;
8574;SDS011;4325;42.520;27.448;2024-03-23T10:33:52;2.77;;;2.57;;
8574;SDS011;4325;42.520;27.448;2024-03-23T10:36:20;2.97;;;2.77;;
8574;SDS011;4325;42.520;27.448;2024-03-23T10:38:49;3.13;;;2.83;;
8574;SDS011;4325;42.520;27.448;2024-03-23T10:41:17;2.73;;;2.53;;
8574;SDS011;4325;42.520;27.448;2024-03-23T10:43:45;3.10;;;2.80;;
8574;SDS011;4325;42.520;27.448;2024-03-23T10:46:13;3.00;;;2.70;;
8574;SDS011;4325;42.520;27.448;2024-03-23T10:48:39;3.47;;;3.17;;
8574;SDS011;4325;42.520;27.448;2024-03-23T10:51:07;3.23;;;2.80;;
8574;SDS011;4325;42.520;27.448;2024-03-23T10:53:34;4.50;;;2.93;;
8574;SDS011;4325;42.520;27.448;2024-03-23T10:56:04;7.00;;;3.60;;
8574;SDS011;4325;42.520;27.448;2024-03-23T10:58:31;5.03;;;3.20;;
8574;SDS011;4325;42.520;27.448;2024-03-23T11:01:03;3.17;;;2.97;;
8574;SDS011;4325;42.520;27.448;2024-03-23T11:03:30;4.88;;;3.63;;
8574;SDS011;4325;42.520;27.448;2024-03-23T11:05:58;3.08;;;2.88;;
8574;SDS011;4325;42.520;27.448;2024-03-23T11:08:31;3.47;;;3.17;;
8574;SDS011;4325;42.520;27.448;2024-03-23T11:11:12;4.20;;;3.20;;
8574;SDS011;4325;42.520;27.448;2024-03-23T11:13:47;2.97;;;2.70;;
8574;SDS011;4325;42.520;27.448;2024-03-23T11:16:15;4.68;;;3.00;;
8574;SDS011;4325;42.520;27.448;2024-03-23T11:18:42;5.80;;;3.13;;
8574;SDS011;4325;42.520;27.448;2024-03-23T11:21:10;3.63;;;3.30;;
8574;SDS011;4325;42.520;27.448;2024-03-23T11:23:36;6.97;;;3.30;;
8574;SDS011;4325;42.520;27.448;2024-03-23T11:26:07;3.20;;;2.90;;
8574;SDS011;4325;42.520;27.448;2024-03-23T11:28:35;5.97;;;3.63;;
8574;SDS011;4325;42.520;27.448;2024-03-23T11:31:08;4.23;;;3.67;;
8574;SDS011;4325;42.520;27.448;2024-03-23T11:33:35;5.00;;;4.00;;
8574;SDS011;4325;42.520;27.448;2024-03-23T11:36:03;3.80;;;3.50;;
8574;SDS011;4325;42.520;27.448;2024-03-23T11:38:30;5.17;;;3.27;;
8574;SDS011;4325;42.520;27.448;2024-03-23T11:41:03;4.97;;;3.47;;
8574;SDS011;4325;42.520;27.448;2024-03-23T11:43:30;6.20;;;3.80;;
8574;SDS011;4325;42.520;27.448;2024-03-23T11:45:58;4.13;;;3.77;;
8574;SDS011;4325;42.520;27.448;2024-03-23T11:48:28;3.90;;;3.60;;
8574;SDS011;4325;42.520;27.448;2024-03-23T11:50:56;3.60;;;3.30;;
8574;SDS011;4325;42.520;27.448;2024-03-23T11:53:23;3.07;;;2.77;;
8574;SDS011;4325;42.520;27.448;2024-03-23T11:55:52;4.75;;;3.33;;
8574;SDS011;4325;42.520;27.448;2024-03-23T11:58:19;3.85;;;3.35;;
8574;SDS011;4325;42.520;27.448;2024-03-23T12:00:50;3.50;;;3.20;;
8574;SDS011;4325;42.520;27.448;2024-03-23T12:03:19;3.97;;;3.53;;
8574;SDS011;4325;42.520;27.448;2024-03-23T12:05:47;3.67;;;3.20;;
8574;SDS011;4325;42.520;27.448;2024-03-23T12:08:19;3.53;;;3.20;;
8574;SDS011;4325;42.520;27.448;2024-03-23T12:10:48;3.50;;;3.20;;
8574;SDS011;4325;42.520;27.448;2024-03-23T12:13:16;5.10;;;3.60;;
8574;SDS011;4325;42.520;27.448;2024-03-23T12:15:44;3.87;;;3.47;;
8574;SDS011;4325;42.520;27.448;2024-03-23T12:18:10;3.83;;;3.53;;
8574;SDS011;4325;42.520;27.448;2024-03-23T12:20:39;3.83;;;3.53;;
8574;SDS011;4325;42.520;27.448;2024-03-23T12:23:08;3.53;;;3.23;;
8574;SDS011;4325;42.520;27.448;2024-03-23T12:25:37;4.13;;;3.70;;
8574;SDS011;4325;42.520;27.448;2024-03-23T12:28:03;9.90;;;3.70;;
8574;SDS011;4325;42.520;27.448;2024-03-23T12:30:35;3.60;;;3.30;;
8574;SDS011;4325;42.520;27.448;2024-03-23T12:33:04;6.72;;;3.53;;
8574;SDS011;4325;42.520;27.448;2024-03-23T12:35:31;4.70;;;3.00;;
8574;SDS011;4325;42.520;27.448;2024-03-23T12:37:59;4.68;;;3.30;;
8574;SDS011;4325;42.520;27.448;2024-03-23T12:40:27;3.97;;;3.57;;
8574;SDS011;4325;42.520;27.448;2024-03-23T12:42:53;7.35;;;4.00;;
8574;SDS011;4325;42.520;27.448;2024-03-23T12:45:21;6.80;;;3.40;;
8574;SDS011;4325;42.520;27.448;2024-03-23T12:47:47;3.55;;;3.25;;
8574;SDS011;4325;42.520;27.448;2024-03-23T12:50:14;9.77;;;4.13;;
8574;SDS011;4325;42.520;27.448;2024-03-23T12:52:40;4.47;;;3.50;;
8574;SDS011;4325;42.520;27.448;2024-03-23T12:55:08;5.70;;;3.60;;
8574;SDS011;4325;42.520;27.448;2024-03-23T12:57:35;3.67;;;2.80;;
8574;SDS011;4325;42.520;27.448;2024-03-23T13:00:03;4.82;;;3.40;;
8574;SDS011;4325;42.520;27.448;2024-03-23T13:02:31;4.88;;;3.17;;
8574;SDS011;4325;42.520;27.448;2024-03-23T13:05:00;3.88;;;3.20;;
8574;SDS011;4325;42.520;27.448;2024-03-23T13:07:26;3.60;;;3.30;;
8574;SDS011;4325;42.520;27.448;2024-03-23T13:09:53;3.97;;;3.60;;
8574;SDS011;4325;42.520;27.448;2024-03-23T13:12:20;4.35;;;3.13;;
8574;SDS011;4325;42.520;27.448;2024-03-23T13:14:47;5.43;;;3.50;;
8574;SDS011;4325;42.520;27.448;2024-03-23T13:17:13;6.87;;;3.93;;
8574;SDS011;4325;42.520;27.448;2024-03-23T13:19:40;3.80;;;3.50;;
8574;SDS011;4325;42.520;27.448;2024-03-23T13:22:06;3.70;;;3.13;;
8574;SDS011;4325;42.520;27.448;2024-03-23T13:24:36;3.70;;;3.40;;
8574;SDS011;4325;42.520;27.448;2024-03-23T13:27:02;4.33;;;3.20;;
8574;SDS011;4325;42.520;27.448;2024-03-23T13:29:34;4.73;;;3.87;;
8574;SDS011;4325;42.520;27.448;2024-03-23T13:32:00;9.37;;;3.70;;
8574;SDS011;4325;42.520;27.448;2024-03-23T13:34:27;4.47;;;3.23;;
8574;SDS011;4325;42.520;27.448;2024-03-23T13:36:54;9.97;;;3.77;;
8574;SDS011;4325;42.520;27.448;2024-03-23T13:39:23;4.47;;;3.60;;
8574;SDS011;4325;42.520;27.448;2024-03-23T13:41:49;5.67;;;3.23;;
8574;SDS011;4325;42.520;27.448;2024-03-23T13:44:16;5.17;;;3.03;;
8574;SDS011;4325;42.520;27.448;2024-03-23T13:46:44;3.20;;;3.00;;
8574;SDS011;4325;42.520;27.448;2024-03-23T13:49:18;5.07;;;3.07;;
8574;SDS011;4325;42.520;27.448;2024-03-23T13:51:51;3.60;;;3.30;;
8574;SDS011;4325;42.520;27.448;2024-03-23T13:54:19;5.83;;;3.10;;
8574;SDS011;4325;42.520;27.448;2024-03-23T13:56:46;4.00;;;3.47;;
8574;SDS011;4325;42.520;27.448;2024-03-23T13:59:14;6.03;;;3.30;;
8574;SDS011;4325;42.520;27.448;2024-03-23T14:01:40;4.93;;;3.00;;
8574;SDS011;4325;42.520;27.448;2024-03-23T14:04:09;3.30;;;2.70;;
8574;SDS011;4325;42.520;27.448;2024-03-23T14:06:36;3.43;;;3.00;;
8574;SDS011;4325;42.520;27.448;2024-03-23T14:09:03;3.80;;;3.30;;
8574;SDS011;4325;42.520;27.448;2024-03-23T14:11:29;3.07;;;2.83;;
8574;SDS011;4325;42.520;27.448;2024-03-23T14:13:57;3.50;;;3.20;;
8574;SDS011;4325;42.520;27.448;2024-03-23T14:16:22;3.47;;;3.17;;
8574;SDS011;4325;42.520;27.448;2024-03-23T14:18:49;3.80;;;3.20;;
8574;SDS011;4325;42.520;27.448;2024-03-23T14:21:17;3.13;;;2.83;;
8574;SDS011;4325;42.520;27.448;2024-03-23T14:23:45;4.77;;;3.23;;
8574;SDS011;4325;42.520;27.448;2024-03-23T14:26:11;4.27;;;3.33;;
8574;SDS011;4325;42.520;27.448;2024-03-23T14:28:38;4.60;;;3.40;;
8574;SDS011;4325;42.520;27.448;2024-03-23T14:31:04;3.53;;;3.17;;
8574;SDS011;4325;42.520;27.448;2024-03-23T14:33:35;3.40;;;2.87;;
8574;SDS011;4325;42.520;27.448;2024-03-23T14:36:03;2.70;;;2.50;;
8574;SDS011;4325;42.520;27.448;2024-03-23T14:38:32;3.03;;;2.73;;
8574;SDS011;4325;42.520;27.448;2024-03-23T14:40:58;6.07;;;2.80;;
8574;SDS011;4325;42.520;27.448;2024-03-23T14:43:26;4.20;;;2.97;;
8574;SDS011;4325;42.520;27.448;2024-03-23T14:46:08;4.17;;;2.97;;
8574;SDS011;4325;42.520;27.448;2024-03-23T14:48:35;5.00;;;2.70;;
8574;SDS011;4325;42.520;27.448;2024-03-23T14:51:02;6.40;;;3.30;;
8574;SDS011;4325;42.520;27.448;2024-03-23T14:53:32;4.40;;;2.83;;
8574;SDS011;4325;42.520;27.448;2024-03-23T14:55:58;3.03;;;2.80;;
8574;SDS011;4325;42.520;27.448;2024-03-23T14:58:26;3.67;;;3.23;;
8574;SDS011;4325;42.520;27.448;2024-03-23T15:00:52;4.23;;;2.43;;
8574;SDS011;4325;42.520;27.448;2024-03-23T15:03:19;5.10;;;3.23;;
8574;SDS011;4325;42.520;27.448;2024-03-23T15:05:52;6.70;;;3.10;;
8574;SDS011;4325;42.520;27.448;2024-03-23T15:08:19;6.37;;;3.33;;
8574;SDS011;4325;42.520;27.448;2024-03-23T15:10:46;7.67;;;3.07;;
8574;SDS011;4325;42.520;27.448;2024-03-23T15:13:14;5.20;;;4.10;;
8574;SDS011;4325;42.520;27.448;2024-03-23T15:15:40;3.70;;;3.40;;
8574;SDS011;4325;42.520;27.448;2024-03-23T15:18:09;3.97;;;3.10;;
8574;SDS011;4325;42.520;27.448;2024-03-23T15:20:35;6.33;;;3.20;;
8574;SDS011;4325;42.520;27.448;2024-03-23T15:23:02;3.60;;;3.30;;
8574;SDS011;4325;42.520;27.448;2024-03-23T15:25:28;5.77;;;3.43;;
8574;SDS011;4325;42.520;27.448;2024-03-23T15:27:57;4.50;;;3.70;;
8574;SDS011;4325;42.520;27.448;2024-03-23T15:30:25;5.13;;;3.40;;
8574;SDS011;4325;42.520;27.448;2024-03-23T15:32:53;7.37;;;3.17;;
8574;SDS011;4325;42.520;27.448;2024-03-23T15:35:19;5.97;;;3.57;;
8574;SDS011;4325;42.520;27.448;2024-03-23T15:37:48;5.17;;;3.60;;
8574;SDS011;4325;42.520;27.448;2024-03-23T15:40:14;5.43;;;3.30;;
8574;SDS011;4325;42.520;27.448;2024-03-23T15:42:41;4.50;;;3.37;;
8574;SDS011;4325;42.520;27.448;2024-03-23T15:45:09;2.90;;;2.70;;
8574;SDS011;4325;42.520;27.448;2024-03-23T15:47:36;4.60;;;3.43;;